Time;durP1;ratioP1;P1;durP2;ratioP2;P2;SDS_P1;SDS_P2;PMS_P1;PMS_P2;Temp;Humidity;BMP_temperature;BMP_pressure;BME280_temperature;BME280_humidity;BME280_pressure;Samples;Min_cycle;Max_cycle;Signal;HPM_P1;HPM_P2
2022/10/27 00:02:26;;;;;;;9.40;1.75;;;;;;;12.69;78.15;100113.69;5003554;28;20054;-46
2022/10/27 00:04:53;;;;;;;17.90;1.75;;;;;;;12.71;77.67;100121.47;4996720;28;20100;-43
2022/10/27 00:07:20;;;;;;;10.95;1.83;;;;;;;12.69;78.05;100125.81;5002604;28;20132;-43
2022/10/27 00:09:46;;;;;;;16.48;1.67;;;;;;;12.72;77.71;100130.97;5000402;28;20145;-47
2022/10/27 00:12:13;;;;;;;15.00;2.00;;;;;;;12.72;77.02;100123.19;5003410;28;20060;-43
2022/10/27 00:14:40;;;;;;;17.15;2.10;;;;;;;12.71;78.20;100126.66;4999904;28;20073;-44
2022/10/27 00:17:07;;;;;;;20.42;1.67;;;;;;;12.72;78.38;100125.78;5002359;28;20647;-42
2022/10/27 00:19:33;;;;;;;11.38;1.63;;;;;;;12.71;77.79;100126.66;4998181;28;20054;-41
2022/10/27 00:22:00;;;;;;;18.17;1.95;;;;;;;12.72;77.27;100123.19;4993339;28;20576;-44
2022/10/27 00:24:26;;;;;;;14.73;2.70;;;;;;;12.65;80.00;100126.72;4995529;28;20092;-45
2022/10/27 00:26:53;;;;;;;12.57;1.42;;;;;;;12.66;79.98;100131.06;4998637;28;20105;-46
2022/10/27 00:29:19;;;;;;;13.35;1.85;;;;;;;12.72;79.52;100125.78;4993098;28;20157;-47
2022/10/27 00:31:46;;;;;;;17.58;1.88;;;;;;;12.72;79.26;100130.97;4999231;28;20056;-45
2022/10/27 00:34:13;;;;;;;10.57;2.08;;;;;;;12.72;79.26;100130.97;4992616;28;20046;-45
2022/10/27 00:36:39;;;;;;;12.20;1.63;;;;;;;12.75;79.49;100124.88;4995924;28;20497;-43
2022/10/27 00:39:06;;;;;;;21.02;2.13;;;;;;;12.71;79.34;100124.06;4995603;28;20465;-44
2022/10/27 00:44:35;;;;;;;13.40;2.10;;;;;;;12.66;79.60;100120.66;5033678;28;20937;-47
2022/10/27 00:47:31;;;;;;;14.07;2.03;;;;;;;12.70;78.56;100117.16;5040131;28;21300;-43
2022/10/27 00:52:37;;;;;;;13.27;2.30;;;;;;;12.70;79.22;100109.34;5025733;28;20918;-41
2022/10/27 00:55:06;;;;;;;;;;;;;;;12.54;80.95;100101.72;4992280;28;20069;-43
2022/10/27 00:57:34;;;;;;;15.48;3.10;;;;;;;12.67;78.94;100104.19;4991031;28;19980;-44
2022/10/27 01:00:02;;;;;;;11.20;3.05;;;;;;;12.67;80.14;100101.59;4992766;28;20129;-46
2022/10/27 01:02:30;;;;;;;9.10;2.50;;;;;;;12.66;79.52;100105.06;4993731;28;20091;-47
2022/10/27 01:05:04;;;;;;;13.70;2.92;;;;;;;12.64;79.78;100107.69;4986130;28;20153;-41
2022/10/27 01:07:32;;;;;;;6.93;2.35;;;;;;;12.63;80.48;100118.09;4996167;28;20567;-46
2022/10/27 01:09:59;;;;;;;12.85;3.33;;;;;;;12.63;79.82;100110.28;4994433;28;20100;-44
2022/10/27 01:12:25;;;;;;;14.38;3.33;;;;;;;12.67;79.21;100117.19;4998937;28;20054;-44
2022/10/27 01:14:52;;;;;;;14.40;2.55;;;;;;;12.68;80.19;100114.56;4993275;28;20140;-45
2022/10/27 01:25:47;;;;;;;10.85;2.17;;;;;;;12.75;79.56;100088.50;5091356;27;20404;-43
2022/10/27 01:31:30;;;;;;;14.68;3.80;;;;;;;12.78;79.45;100099.75;5051748;27;20394;-42
2022/10/27 01:34:08;;;;;;;15.00;3.25;;;;;;;12.77;80.33;100103.19;5052479;28;20077;-43
2022/10/27 01:39:40;;;;;;;17.75;2.03;;;;;;;12.77;80.55;100100.59;5002558;27;20858;-44
2022/10/27 01:42:14;;;;;;;14.13;1.88;;;;;;;12.79;81.56;100105.78;5022978;28;20054;-43
2022/10/27 01:44:44;;;;;;;13.70;2.08;;;;;;;12.88;79.62;100110.88;4999916;28;20073;-46
2022/10/27 01:47:12;;;;;;;13.25;2.50;;;;;;;12.92;80.06;100107.38;5004551;28;20056;-48
2022/10/27 01:49:41;;;;;;;17.77;2.13;;;;;;;12.93;80.56;100108.22;5015675;28;20533;-41
2022/10/27 02:01:13;;;;;;;16.40;2.30;;;;;;;13.05;80.21;100091.63;5051822;27;20469;-48
2022/10/27 02:09:32;;;;;;;14.48;2.03;;;;;;;13.11;80.32;100068.16;5004415;27;20422;-50
2022/10/27 02:12:04;;;;;;;15.43;2.50;;;;;;;13.16;79.99;100062.88;5003641;28;20050;-47
2022/10/27 02:14:33;;;;;;;12.93;2.00;;;;;;;13.20;79.79;100061.94;5003671;28;20176;-47
2022/10/27 02:17:01;;;;;;;17.35;3.05;;;;;;;13.23;79.66;100062.78;5024528;28;20144;-46
2022/10/27 02:19:34;;;;;;;18.67;1.50;;;;;;;13.26;80.64;100059.28;5005528;28;20071;-46
2022/10/27 02:22:02;;;;;;;16.63;2.17;;;;;;;13.29;80.83;100054.03;5009367;28;20052;-42
2022/10/27 02:24:30;;;;;;;15.55;2.08;;;;;;;13.31;80.29;100051.41;5001608;28;20136;-49
2022/10/27 02:27:03;;;;;;;14.07;2.20;;;;;;;13.32;80.20;100048.81;5006198;28;20080;-46
2022/10/27 02:29:38;;;;;;;12.73;2.38;;;;;;;13.37;80.56;100046.13;5007295;28;20731;-42
2022/10/27 02:32:09;;;;;;;13.40;2.08;;;;;;;13.40;80.13;100055.63;5005128;28;20107;-46
2022/10/27 02:34:37;;;;;;;13.13;3.83;;;;;;;13.44;80.46;100052.94;5002158;28;20574;-48
2022/10/27 02:37:05;;;;;;;11.50;1.77;;;;;;;13.47;80.16;100046.84;5006622;28;21077;-45
2022/10/27 02:39:31;;;;;;;15.00;2.30;;;;;;;13.45;80.43;100043.41;5003368;28;20128;-47
2022/10/27 02:41:58;;;;;;;16.00;1.77;;;;;;;13.50;81.10;100046.81;5003626;28;20042;-46
2022/10/27 02:44:24;;;;;;;15.60;2.22;;;;;;;13.54;80.49;100042.47;5001173;28;20129;-44
2022/10/27 02:46:51;;;;;;;12.98;1.90;;;;;;;13.54;80.66;100030.28;4997110;28;20054;-45
2022/10/27 02:49:19;;;;;;;15.20;1.92;;;;;;;13.58;81.03;100029.34;5010070;28;20076;-47
2022/10/27 02:51:46;;;;;;;10.55;1.88;;;;;;;13.56;81.30;100030.25;5006544;28;20144;-41
2022/10/27 02:54:12;;;;;;;17.92;1.85;;;;;;;13.53;81.46;100018.16;5003339;28;20085;-48
2022/10/27 02:56:39;;;;;;;17.15;2.58;;;;;;;13.53;82.23;100004.28;5001116;28;20144;-44
2022/10/27 02:59:05;;;;;;;16.42;2.00;;;;;;;13.46;83.08;100008.69;5004812;28;20088;-43
2022/10/27 03:01:32;;;;;;;9.73;2.65;;;;;;;13.48;82.87;99997.41;5007533;28;20082;-49
2022/10/27 03:03:59;;;;;;;9.95;2.90;;;;;;;13.47;83.12;100000.00;5003593;28;20051;-45
2022/10/27 03:06:25;;;;;;;7.25;3.88;;;;;;;13.43;82.97;100004.41;5004138;28;20144;-47
2022/10/27 03:08:52;;;;;;;13.98;2.53;;;;;;;13.45;83.84;100012.19;5003162;28;20052;-48
2022/10/27 03:11:18;;;;;;;18.50;3.90;;;;;;;13.44;83.20;100011.31;4998000;28;20148;-41
2022/10/27 03:13:45;;;;;;;9.80;3.45;;;;;;;13.39;83.49;100020.94;5001572;28;20072;-48
2022/10/27 03:16:11;;;;;;;13.00;4.22;;;;;;;13.48;82.95;100009.56;4999605;28;20180;-44
2022/10/27 03:18:38;;;;;;;9.70;3.15;;;;;;;13.53;82.89;100004.28;5002859;28;20144;-47
2022/10/27 03:21:05;;;;;;;19.60;4.13;;;;;;;13.55;83.37;99990.41;4998314;28;20552;-43
2022/10/27 03:23:31;;;;;;;15.18;3.83;;;;;;;13.59;83.38;99989.47;4992069;28;20189;-46
2022/10/27 03:25:59;;;;;;;15.60;4.47;;;;;;;13.62;83.68;99991.16;4990994;28;20420;-45
2022/10/27 03:28:29;;;;;;;13.90;4.28;;;;;;;13.64;83.12;99996.34;4994364;28;20641;-46
2022/10/27 03:30:55;;;;;;;11.23;4.28;;;;;;;13.60;84.61;99991.16;4998434;28;20046;-45
2022/10/27 03:33:22;;;;;;;14.55;4.35;;;;;;;13.61;84.80;99987.69;4989317;28;20129;-44
2022/10/27 03:35:49;;;;;;;17.70;5.10;;;;;;;13.66;84.86;99978.94;4992428;28;20050;-42
2022/10/27 03:38:15;;;;;;;17.80;5.75;;;;;;;13.66;84.48;99973.72;4992911;28;20133;-45
2022/10/27 03:40:42;;;;;;;19.35;6.03;;;;;;;13.70;84.21;99964.97;4991666;28;20128;-48
2022/10/27 03:43:09;;;;;;;15.63;5.10;;;;;;;13.69;84.56;99958.06;4986704;28;20412;-46
2022/10/27 03:45:36;;;;;;;17.63;5.80;;;;;;;13.74;84.52;99966.63;4994273;28;20085;-46
2022/10/27 03:48:06;;;;;;;18.33;6.10;;;;;;;13.77;84.78;99966.59;4986473;28;20042;-48
2022/10/27 03:50:33;;;;;;;17.00;5.10;;;;;;;13.78;84.21;99962.25;4972235;28;20082;-47
2022/10/27 03:53:02;;;;;;;22.02;6.40;;;;;;;13.81;84.77;99965.66;4997961;28;20081;-45
2022/10/27 03:55:29;;;;;;;16.65;6.32;;;;;;;13.78;85.29;99962.25;4984011;28;20057;-46
2022/10/27 03:57:56;;;;;;;17.13;5.75;;;;;;;13.71;86.45;99961.50;4994169;28;20165;-44
2022/10/27 04:00:23;;;;;;;23.58;7.25;;;;;;;13.82;85.93;99958.72;4989624;28;20051;-43
2022/10/27 04:02:54;;;;;;;24.30;6.32;;;;;;;13.91;84.62;99957.69;4990977;28;20608;-46
2022/10/27 04:05:22;;;;;;;22.58;6.72;;;;;;;13.87;85.32;99947.34;4985000;28;20050;-48
2022/10/27 04:07:48;;;;;;;24.48;6.00;;;;;;;13.92;85.15;99944.66;4992251;28;20064;-44
2022/10/27 04:10:15;;;;;;;23.83;6.75;;;;;;;13.94;85.12;99937.66;4985092;28;20054;-43
2022/10/27 04:12:51;;;;;;;19.88;7.07;;;;;;;13.95;85.05;99943.72;4984326;28;20050;-47
2022/10/27 04:15:19;;;;;;;21.23;5.78;;;;;;;13.98;85.13;99943.66;4983810;28;20054;-47
2022/10/27 04:17:46;;;;;;;24.83;6.40;;;;;;;13.97;85.39;99936.75;4983287;28;20173;-42
2022/10/27 04:20:13;;;;;;;23.65;7.22;;;;;;;14.04;84.67;99927.94;4988009;28;21492;-48
2022/10/27 04:22:40;;;;;;;23.23;6.78;;;;;;;14.05;84.34;99924.44;4996657;28;20415;-42
2022/10/27 04:25:07;;;;;;;23.98;7.25;;;;;;;14.09;85.06;99936.50;4988771;28;20401;-47
2022/10/27 04:27:33;;;;;;;30.48;8.35;;;;;;;14.11;84.81;99929.53;4991764;28;20050;-42
2022/10/27 04:30:00;;;;;;;31.45;8.60;;;;;;;14.16;84.51;99931.19;4987792;28;20708;-46
2022/10/27 04:32:27;;;;;;;23.40;8.65;;;;;;;14.17;84.34;99930.28;4988589;28;20294;-45
2022/10/27 04:34:53;;;;;;;27.58;7.95;;;;;;;14.21;85.11;99930.22;4981075;28;20050;-46
2022/10/27 04:37:20;;;;;;;23.92;7.60;;;;;;;14.21;84.93;99939.75;4990302;28;20050;-42
2022/10/27 04:39:46;;;;;;;32.63;8.07;;;;;;;14.22;85.24;99933.69;4981928;28;20168;-44
2022/10/27 04:42:13;;;;;;;31.90;9.10;;;;;;;14.24;85.02;99934.50;4985232;28;20173;-47
2022/10/27 04:44:40;;;;;;;31.70;8.55;;;;;;;14.27;84.76;99929.22;4986589;28;20129;-44
2022/10/27 04:47:06;;;;;;;27.75;8.48;;;;;;;14.33;84.95;99923.91;4984421;28;20132;-48
2022/10/27 04:49:33;;;;;;;31.55;8.70;;;;;;;14.32;85.31;99916.97;4994411;28;20049;-44
2022/10/27 04:51:59;;;;;;;28.67;8.20;;;;;;;14.36;84.62;99923.81;4993697;28;20125;-46
2022/10/27 04:54:27;;;;;;;27.42;8.95;;;;;;;14.38;84.77;99916.84;4983994;28;20050;-46
2022/10/27 04:56:54;;;;;;;29.83;8.68;;;;;;;14.40;85.66;99919.41;4985373;28;20112;-46
2022/10/27 04:59:20;;;;;;;26.98;8.38;;;;;;;14.42;84.79;99922.00;4982049;28;20051;-46
2022/10/27 05:01:47;;;;;;;25.70;7.20;;;;;;;14.40;85.33;99920.25;4990913;28;20058;-47
2022/10/27 05:04:14;;;;;;;26.75;9.05;;;;;;;14.44;84.66;99909.78;4991735;28;20274;-45
2022/10/27 05:06:41;;;;;;;25.05;8.70;;;;;;;14.45;85.18;99907.13;5000354;28;20498;-42
2022/10/27 05:09:07;;;;;;;26.58;8.68;;;;;;;14.47;85.91;99912.31;4983513;28;20046;-45
2022/10/27 05:11:34;;;;;;;20.58;7.65;;;;;;;14.48;84.95;99906.22;4983500;28;20081;-47
2022/10/27 05:14:00;;;;;;;28.15;8.43;;;;;;;14.52;85.01;99897.44;4985208;28;20105;-44
2022/10/27 05:16:27;;;;;;;30.63;8.75;;;;;;;14.52;84.77;99894.84;5000736;28;20086;-46
2022/10/27 05:18:53;;;;;;;25.20;8.82;;;;;;;14.54;84.99;99890.47;4987141;28;20124;-45
2022/10/27 05:21:20;;;;;;;22.83;7.97;;;;;;;14.52;85.42;99898.31;4997938;28;20053;-46
2022/10/27 05:23:47;;;;;;;26.15;8.82;;;;;;;14.53;84.74;99904.38;4988630;28;20081;-44
2022/10/27 05:26:14;;;;;;;26.95;7.03;;;;;;;14.56;85.18;99893.88;4986064;28;20078;-42
2022/10/27 05:28:42;;;;;;;20.85;7.68;;;;;;;14.54;85.06;99895.66;4980352;28;20153;-43
2022/10/27 05:31:10;;;;;;;24.35;8.00;;;;;;;14.60;84.97;99894.69;4995051;28;20414;-46
2022/10/27 05:33:36;;;;;;;27.35;8.15;;;;;;;14.57;85.35;99900.81;4987510;28;20082;-48
2022/10/27 05:36:03;;;;;;;21.25;7.45;;;;;;;14.60;84.69;99894.69;4995145;28;20146;-45
2022/10/27 05:38:30;;;;;;;23.50;8.07;;;;;;;14.63;84.93;99892.84;4979314;28;20034;-47
2022/10/27 05:40:57;;;;;;;27.50;8.35;;;;;;;14.67;84.24;99892.78;4984828;28;20054;-47
2022/10/27 05:43:24;;;;;;;19.85;7.53;;;;;;;14.62;84.72;99898.97;4985218;28;20159;-44
2022/10/27 05:45:51;;;;;;;27.33;8.25;;;;;;;14.69;84.43;99893.63;4990210;28;20152;-47
2022/10/27 05:48:17;;;;;;;23.15;8.52;;;;;;;14.72;83.82;99888.31;4988294;28;20520;-43
2022/10/27 05:50:44;;;;;;;27.08;8.70;;;;;;;14.72;84.99;99893.53;4994331;28;20053;-45
2022/10/27 05:53:10;;;;;;;19.15;7.00;;;;;;;14.69;85.02;99891.03;4990697;28;20104;-44
2022/10/27 05:55:37;;;;;;;24.20;7.40;;;;;;;14.69;84.64;99885.81;4990308;28;20237;-44
2022/10/27 05:58:06;;;;;;;25.45;8.85;;;;;;;14.70;84.81;99884.91;4988754;28;20146;-45
2022/10/27 06:00:35;;;;;;;22.25;7.80;;;;;;;14.69;84.36;99883.19;4984574;28;20046;-48
2022/10/27 06:03:04;;;;;;;21.98;7.65;;;;;;;14.71;85.15;99886.63;4988282;28;20132;-45
2022/10/27 06:05:33;;;;;;;19.73;6.65;;;;;;;14.73;84.33;99890.06;4983972;28;20532;-49
2022/10/27 06:08:00;;;;;;;32.65;9.32;;;;;;;14.73;84.40;99887.44;4983986;28;20056;-46
2022/10/27 06:10:28;;;;;;;25.73;8.23;;;;;;;14.77;84.45;99891.72;4993722;28;20057;-46
2022/10/27 06:13:03;;;;;;;25.85;8.88;;;;;;;14.76;84.56;99885.63;4992036;28;20084;-49
2022/10/27 06:15:32;;;;;;;28.30;8.70;;;;;;;14.78;84.05;99886.50;4982203;28;20259;-46
2022/10/27 06:17:59;;;;;;;25.75;8.52;;;;;;;14.80;84.69;99885.59;4972782;28;20043;-46
2022/10/27 06:20:26;;;;;;;29.63;8.70;;;;;;;14.84;84.32;99876.81;4995034;28;20050;-47
2022/10/27 06:22:53;;;;;;;27.52;8.98;;;;;;;14.87;83.73;99880.22;4994604;28;20054;-47
2022/10/27 06:25:19;;;;;;;23.83;7.80;;;;;;;14.89;84.35;99877.53;4993304;28;20145;-47
2022/10/27 06:27:46;;;;;;;27.83;9.10;;;;;;;14.90;84.39;99877.50;4988632;28;20131;-48
2022/10/27 06:30:13;;;;;;;29.48;8.85;;;;;;;14.93;83.57;99870.53;4994606;28;20050;-44
2022/10/27 06:32:40;;;;;;;27.88;8.52;;;;;;;14.94;84.21;99867.88;4991021;28;20054;-45
2022/10/27 06:35:08;;;;;;;28.80;9.18;;;;;;;14.95;83.55;99864.38;4967416;28;20164;-45
2022/10/27 06:37:44;;;;;;;30.05;8.25;;;;;;;14.95;84.03;99866.97;4991164;28;20108;-45
2022/10/27 06:40:13;;;;;;;27.65;7.93;;;;;;;14.94;84.17;99856.56;4970485;28;20046;-46
2022/10/27 06:42:40;;;;;;;;;;;;;;;14.84;84.24;99853.34;4990039;28;20046;-46
2022/10/27 06:45:26;;;;;;;26.23;8.70;;;;;;;14.94;84.08;99859.19;4987574;28;20024;-45
2022/10/27 06:47:57;;;;;;;29.90;8.73;;;;;;;14.96;83.94;99849.59;4979068;28;20054;-47
2022/10/27 06:50:24;;;;;;;27.05;9.05;;;;;;;14.94;83.87;99853.97;4967099;28;20121;-46
2022/10/27 06:52:50;;;;;;;27.30;9.13;;;;;;;14.95;83.84;99842.63;4988371;28;20056;-48
2022/10/27 06:55:18;;;;;;;30.92;9.43;;;;;;;14.97;83.33;99831.31;4989793;28;20050;-48
2022/10/27 06:57:45;;;;;;;28.65;9.23;;;;;;;14.99;83.54;99823.41;4998109;28;20452;-47
2022/10/27 07:00:12;;;;;;;29.40;9.73;;;;;;;14.99;83.50;99828.63;4991363;28;20045;-48
2022/10/27 07:02:39;;;;;;;27.17;9.13;;;;;;;15.00;83.52;99830.38;4986315;28;20082;-46
2022/10/27 07:05:06;;;;;;;31.40;8.98;;;;;;;15.01;83.01;99837.28;4986526;28;20056;-49
2022/10/27 07:07:35;;;;;;;31.63;9.70;;;;;;;15.02;82.98;99846.81;4985611;28;20065;-49
2022/10/27 07:10:03;;;;;;;35.60;8.73;;;;;;;15.03;83.25;99835.50;4993421;28;20104;-46
2022/10/27 07:12:30;;;;;;;29.13;9.00;;;;;;;15.02;82.90;99841.59;4988103;28;20048;-47
2022/10/27 07:14:57;;;;;;;29.02;9.40;;;;;;;15.02;82.65;99845.06;4989819;28;20053;-43
2022/10/27 07:17:24;;;;;;;30.90;9.23;;;;;;;15.02;82.89;99849.41;4993310;28;20563;-47
2022/10/27 07:19:50;;;;;;;26.73;8.52;;;;;;;15.01;82.62;99845.09;4990993;28;20046;-46
2022/10/27 07:22:17;;;;;;;29.83;10.68;;;;;;;15.01;83.13;99832.94;4985167;28;20169;-47
2022/10/27 07:24:44;;;;;;;28.73;10.90;;;;;;;15.00;83.12;99831.19;4993688;28;20544;-46
2022/10/27 07:27:10;;;;;;;29.73;9.55;;;;;;;15.00;82.71;99840.78;4989051;28;20050;-45
2022/10/27 07:29:37;;;;;;;29.95;9.15;;;;;;;14.97;83.34;99838.25;4992867;28;20133;-44
2022/10/27 07:32:04;;;;;;;32.10;9.32;;;;;;;14.95;83.11;99838.28;4992509;28;20137;-47
2022/10/27 07:34:30;;;;;;;26.83;9.23;;;;;;;14.95;82.90;99835.69;4994844;28;20129;-46
2022/10/27 07:36:57;;;;;;;33.67;10.00;;;;;;;14.95;82.98;99832.22;4996607;28;20046;-46
2022/10/27 07:39:23;;;;;;;30.13;8.80;;;;;;;14.95;83.48;99832.22;5000337;28;20128;-47
2022/10/27 07:41:50;;;;;;;31.25;9.07;;;;;;;14.96;82.89;99828.72;5000271;28;20081;-46
2022/10/27 07:44:17;;;;;;;26.98;8.05;;;;;;;14.96;83.46;99828.72;5006119;28;20042;-44
2022/10/27 07:46:43;;;;;;;33.72;8.88;;;;;;;14.94;82.69;99833.09;5001053;28;20121;-47
2022/10/27 07:49:10;;;;;;;33.45;9.40;;;;;;;14.94;82.79;99809.63;4993884;28;20125;-46
2022/10/27 07:51:36;;;;;;;24.92;8.63;;;;;;;14.96;82.76;99794.81;4998950;28;20458;-44
2022/10/27 07:54:03;;;;;;;27.48;8.73;;;;;;;14.98;83.21;99793.03;4996571;28;20133;-48
2022/10/27 07:56:31;;;;;;;25.48;8.77;;;;;;;15.00;83.13;99784.25;5000173;28;20146;-44
2022/10/27 07:58:58;;;;;;;32.15;8.80;;;;;;;15.02;82.99;99782.47;4999515;28;20617;-45
2022/10/27 08:01:25;;;;;;;22.58;7.22;;;;;;;15.06;82.17;99771.97;4986382;28;20050;-46
2022/10/27 08:03:52;;;;;;;29.17;9.50;;;;;;;15.07;82.70;99758.91;4987902;28;20061;-45
2022/10/27 08:06:19;;;;;;;27.10;8.82;;;;;;;15.09;82.37;99740.56;4992132;28;20050;-48
2022/10/27 08:08:46;;;;;;;25.85;7.97;;;;;;;15.09;82.58;99740.56;4985761;28;20046;-44
2022/10/27 08:11:13;;;;;;;27.67;10.35;;;;;;;15.07;82.49;99752.81;4979470;28;20466;-44
2022/10/27 08:13:40;;;;;;;28.23;7.85;;;;;;;15.07;82.29;99784.13;4988291;28;20134;-46
2022/10/27 08:16:06;;;;;;;27.35;9.02;;;;;;;15.06;82.32;99793.69;4991334;28;20134;-49
2022/10/27 08:18:33;;;;;;;26.92;8.07;;;;;;;15.06;82.23;99798.91;4988165;28;20109;-44
2022/10/27 08:21:02;;;;;;;26.30;8.65;;;;;;;15.07;82.12;99789.34;4989320;28;20072;-48
2022/10/27 08:23:29;;;;;;;26.58;8.07;;;;;;;15.02;82.56;99794.66;4982113;28;20073;-44
2022/10/27 08:25:56;;;;;;;25.73;8.40;;;;;;;15.04;82.46;99795.50;4993517;28;20136;-44
2022/10/27 08:28:23;;;;;;;32.47;7.93;;;;;;;15.01;82.80;99800.78;4997303;28;20137;-45
2022/10/27 08:30:51;;;;;;;25.50;7.82;;;;;;;15.02;82.69;99794.66;4981403;28;20049;-45
2022/10/27 08:33:20;;;;;;;22.45;8.10;;;;;;;15.02;82.77;99794.66;4985791;28;20045;-47
2022/10/27 08:35:49;;;;;;;26.38;8.20;;;;;;;15.03;82.62;99799.00;5000214;28;20133;-45
2022/10/27 08:38:17;;;;;;;24.48;7.90;;;;;;;15.03;82.70;99801.59;4981996;28;20046;-46
2022/10/27 08:46:05;;;;;;;24.00;9.55;;;;;;;15.05;82.20;99791.97;5119070;27;20406;-47
2022/10/27 08:48:32;;;;;;;25.88;9.57;;;;;;;15.07;82.77;99790.19;5044415;28;20215;-45
2022/10/27 08:51:00;;;;;;;21.23;8.48;;;;;;;15.07;82.32;99789.34;5044931;28;20488;-46
2022/10/27 08:53:30;;;;;;;17.80;8.45;;;;;;;15.08;82.63;99791.91;5032239;28;20143;-45
2022/10/27 08:56:04;;;;;;;18.63;8.13;;;;;;;15.05;82.83;99794.59;5038423;28;20057;-45
2022/10/27 09:11:59;;;;;;;18.98;7.90;;;;;;;15.05;82.66;99836.31;5032299;27;20402;-45
2022/10/27 09:17:16;;;;;;;12.63;4.43;;;;;;;15.10;83.31;99842.25;5032866;28;21023;-47
2022/10/27 09:19:49;;;;;;;17.50;5.38;;;;;;;15.10;83.21;99837.03;4996320;28;20069;-44
2022/10/27 09:22:18;;;;;;;16.88;5.45;;;;;;;15.12;82.68;99835.25;4998630;28;20449;-46
2022/10/27 09:24:58;;;;;;;13.75;4.60;;;;;;;15.11;82.84;99833.56;4995690;28;20203;-43
2022/10/27 09:27:25;;;;;;;14.90;5.32;;;;;;;15.12;83.09;99830.06;5002084;28;20048;-46
2022/10/27 09:29:54;;;;;;;10.40;5.65;;;;;;;15.12;83.36;99819.63;4999129;28;20540;-49
2022/10/27 09:32:24;;;;;;;13.82;5.55;;;;;;;15.18;82.94;99826.44;4999191;28;20087;-44
2022/10/27 09:35:00;;;;;;;17.40;4.90;;;;;;;15.19;83.46;99824.69;4997938;28;20049;-48
2022/10/27 09:37:28;;;;;;;13.43;5.00;;;;;;;15.23;83.08;99824.56;5000418;28;20129;-45
2022/10/27 09:39:56;;;;;;;15.77;5.20;;;;;;;15.22;83.02;99824.59;4999700;28;20145;-48
2022/10/27 09:42:25;;;;;;;15.48;5.18;;;;;;;15.24;82.96;99822.81;5000240;28;20089;-45
2022/10/27 09:44:55;;;;;;;15.68;5.38;;;;;;;15.23;82.84;99816.72;4983600;28;20053;-46
2022/10/27 09:47:25;;;;;;;14.52;6.63;;;;;;;15.25;82.85;99814.94;5002573;28;20523;-45
2022/10/27 09:49:58;;;;;;;14.10;4.82;;;;;;;15.27;83.25;99807.09;4994370;28;20510;-43
2022/10/27 09:52:32;;;;;;;12.77;5.45;;;;;;;15.29;82.66;99797.44;4994960;28;20148;-45
2022/10/27 09:54:59;;;;;;;12.07;5.05;;;;;;;15.33;83.08;99801.69;4996404;28;20088;-47
2022/10/27 09:57:31;;;;;;;11.52;5.00;;;;;;;15.38;83.21;99794.63;4995264;28;20073;-48
2022/10/27 10:00:06;;;;;;;16.05;5.38;;;;;;;15.45;83.28;99804.88;4998302;28;20046;-45
2022/10/27 10:02:36;;;;;;;13.88;4.90;;;;;;;15.47;82.69;99803.09;4993763;28;20084;-47
2022/10/27 10:05:18;;;;;;;10.40;4.20;;;;;;;15.45;83.45;99800.50;4997485;28;20069;-48
2022/10/27 10:07:45;;;;;;;13.23;4.68;;;;;;;15.52;83.36;99801.19;5000509;28;20145;-45
2022/10/27 10:10:24;;;;;;;13.00;5.47;;;;;;;15.51;83.17;99804.72;5000032;28;20627;-48
2022/10/27 10:15:42;;;;;;;12.13;5.18;;;;;;;15.57;82.63;99808.91;5024899;28;20411;-46
2022/10/27 10:18:25;;;;;;;;;;;;;;;15.45;83.08;99807.47;5019973;28;20137;-46
2022/10/27 10:20:58;;;;;;;12.27;4.88;;;;;;;15.60;82.60;99803.59;5019008;28;20018;-46
2022/10/27 10:23:28;;;;;;;8.73;4.28;;;;;;;15.68;82.97;99806.84;5018182;28;20065;-48
2022/10/27 10:25:57;;;;;;;9.60;4.30;;;;;;;15.66;82.76;99793.84;5016144;28;20133;-45
2022/10/27 10:31:04;;;;;;;12.50;6.30;;;;;;;15.76;82.77;99793.56;5100186;27;20833;-49
2022/10/27 10:33:35;;;;;;;10.13;5.57;;;;;;;15.79;83.28;99798.72;5032268;28;20131;-42
2022/10/27 10:36:27;;;;;;;8.32;5.47;;;;;;;15.76;83.28;99796.19;5055462;28;20155;-44
2022/10/27 10:38:57;;;;;;;8.13;5.18;;;;;;;15.84;82.58;99791.59;5059783;28;20041;-41
2022/10/27 10:41:26;;;;;;;8.63;7.20;;;;;;;15.89;83.23;99794.09;5055068;28;20120;-42
2022/10/27 10:46:54;;;;;;;8.50;3.40;;;;;;;15.91;82.32;99798.34;5066138;27;20393;-44
2022/10/27 10:49:26;;;;;;;8.93;3.45;;;;;;;15.94;82.81;99805.25;5039692;28;20045;-44
2022/10/27 10:51:57;;;;;;;6.75;2.90;;;;;;;15.89;82.48;99789.72;5039276;28;20072;-47
2022/10/27 10:54:43;;;;;;;5.20;2.50;;;;;;;15.89;82.14;99800.16;5030037;28;20142;-43
2022/10/27 10:57:34;;;;;;;9.05;3.22;;;;;;;15.92;82.18;99799.22;5038868;28;20045;-45
2022/10/27 11:00:04;;;;;;;12.13;2.97;;;;;;;16.01;82.36;99803.38;5034783;28;20091;-44
2022/10/27 11:02:33;;;;;;;7.90;3.40;;;;;;;16.03;82.31;99802.41;5037259;28;20713;-49
2022/10/27 11:05:25;;;;;;;9.15;3.08;;;;;;;16.02;82.32;99802.44;5038857;28;20263;-48
2022/10/27 11:07:52;;;;;;;10.65;3.25;;;;;;;16.07;82.10;99803.16;5032010;28;20068;-43
2022/10/27 11:10:27;;;;;;;9.60;3.28;;;;;;;16.07;82.45;99800.56;5037744;28;20055;-43
2022/10/27 11:20:48;;;;;;;6.07;3.28;;;;;;;16.24;81.70;99805.28;5072906;27;21295;-44
2022/10/27 11:23:20;;;;;;;8.50;3.83;;;;;;;16.27;82.12;99804.31;5029231;28;20045;-46
2022/10/27 11:25:48;;;;;;;7.93;3.65;;;;;;;16.29;81.67;99800.78;5046646;28;20127;-44
2022/10/27 11:28:23;;;;;;;7.82;3.42;;;;;;;16.26;81.54;99807.84;5052445;28;20767;-42
2022/10/27 11:30:59;;;;;;;9.43;3.53;;;;;;;16.30;81.92;99809.47;5064334;28;20074;-44
2022/10/27 11:33:36;;;;;;;7.55;3.78;;;;;;;16.33;82.28;99817.22;5065891;28;20044;-49
2022/10/27 11:36:11;;;;;;;9.55;4.20;;;;;;;16.37;81.49;99815.34;5066970;28;20055;-45
2022/10/27 11:44:25;;;;;;;6.40;4.32;;;;;;;16.35;81.92;99811.94;5023906;27;20418;-46
2022/10/27 11:47:24;;;;;;;7.95;3.88;;;;;;;16.40;81.46;99804.81;5012675;28;20512;-44
2022/10/27 11:52:51;;;;;;;9.68;4.15;;;;;;;16.51;80.99;99812.34;5031893;28;20417;-45
2022/10/27 11:55:21;;;;;;;5.85;3.78;;;;;;;16.52;81.76;99809.63;5020735;28;20057;-46
2022/10/27 11:58:07;;;;;;;;;;;;;;;16.41;81.29;99816.97;5019953;28;20067;-42
2022/10/27 12:00:46;;;;;;;6.88;3.20;;;;;;;16.57;80.94;99818.22;5044626;28;20000;-43
2022/10/27 12:06:20;;;;;;;7.28;5.10;;;;;;;16.63;81.34;99805.84;5030206;27;20410;-46
2022/10/27 12:09:13;;;;;;;12.75;5.40;;;;;;;16.67;81.16;99810.06;5006762;28;20125;-47
2022/10/27 12:12:09;;;;;;;9.85;5.53;;;;;;;16.76;81.47;99811.53;5027097;28;20050;-49
2022/10/27 12:14:51;;;;;;;10.30;6.15;;;;;;;16.88;80.89;99816.38;5011762;28;20132;-46
2022/10/27 12:19:55;;;;;;;15.55;5.10;;;;;;;17.03;81.09;99814.16;5045003;28;20904;-45
2022/10/27 12:27:44;;;;;;;8.13;3.60;;;;;;;17.26;80.94;99812.56;5043769;28;20918;-45
2022/10/27 12:33:13;;;;;;;8.23;4.13;;;;;;;17.30;80.49;99811.53;5006469;28;20403;-44
2022/10/27 12:41:15;;;;;;;8.57;4.07;;;;;;;17.42;80.17;99805.88;5040949;27;20414;-45
2022/10/27 12:44:07;;;;;;;7.07;3.80;;;;;;;17.40;80.39;99807.72;5017057;28;20136;-44
2022/10/27 12:52:09;;;;;;;8.32;2.83;;;;;;;17.54;80.04;99814.19;5044025;28;21172;-43
2022/10/27 13:11:20;;;;;;;8.77;3.50;;;;;;;17.59;78.24;99807.03;5030041;28;20417;-48
2022/10/27 13:19:52;;;;;;;7.65;2.60;;;;;;;17.59;78.04;99791.31;5043311;28;20877;-45
2022/10/27 13:22:30;;;;;;;6.75;2.60;;;;;;;17.61;78.12;99789.50;5016997;28;20073;-43
2022/10/27 13:25:08;;;;;;;6.47;2.20;;;;;;;17.63;78.49;99786.84;5013790;28;20099;-47
2022/10/27 13:32:54;;;;;;;5.07;1.65;;;;;;;17.70;77.80;99775.22;5014614;27;20768;-42
2022/10/27 13:40:36;;;;;;;3.00;1.58;;;;;;;17.76;77.75;99782.84;5030288;28;20392;-43
2022/10/27 13:45:59;;;;;;;7.13;1.65;;;;;;;17.85;77.44;99771.19;5077944;27;20405;-44
2022/10/27 13:51:39;;;;;;;3.33;3.10;;;;;;;17.95;77.90;99782.16;5022853;27;20825;-42
2022/10/27 13:58:04;;;;;;;4.55;2.03;;;;;;;18.26;76.97;99772.28;5015941;27;20418;-45
2022/10/27 14:11:30;;;;;;;5.85;1.48;;;;;;;18.25;76.46;99774.06;5040314;27;20394;-46
2022/10/27 14:14:04;;;;;;;4.22;1.20;;;;;;;18.28;76.65;99767.84;5028233;28;20049;-45
2022/10/27 14:16:34;;;;;;;3.70;1.27;;;;;;;18.29;76.74;99769.53;5049816;28;20125;-47
2022/10/27 14:19:22;;;;;;;4.38;1.42;;;;;;;18.26;76.67;99770.53;5024636;28;20499;-44